sensor_id;sensor_type;location;lat;lon;timestamp;P1;durP1;ratioP1;P2;durP2;ratioP2
55364;SDS011;41245;45.384;20.390;2023-08-06T00:00:47;8.23;;;5.28;;
55364;SDS011;41245;45.384;20.390;2023-08-06T00:03:13;8.27;;;4.97;;
55364;SDS011;41245;45.384;20.390;2023-08-06T00:05:42;10.40;;;5.82;;
55364;SDS011;41245;45.384;20.390;2023-08-06T00:08:09;7.88;;;5.25;;
55364;SDS011;41245;45.384;20.390;2023-08-06T00:10:35;11.23;;;6.30;;
55364;SDS011;41245;45.384;20.390;2023-08-06T00:13:01;11.50;;;6.15;;
55364;SDS011;41245;45.384;20.390;2023-08-06T00:15:27;7.93;;;5.25;;
55364;SDS011;41245;45.384;20.390;2023-08-06T00:17:53;8.07;;;5.25;;
55364;SDS011;41245;45.384;20.390;2023-08-06T00:20:19;8.18;;;4.50;;
55364;SDS011;41245;45.384;20.390;2023-08-06T00:22:45;7.50;;;5.10;;
55364;SDS011;41245;45.384;20.390;2023-08-06T00:25:11;5.93;;;4.60;;
55364;SDS011;41245;45.384;20.390;2023-08-06T00:27:37;8.68;;;5.75;;
55364;SDS011;41245;45.384;20.390;2023-08-06T00:30:04;7.90;;;5.25;;
55364;SDS011;41245;45.384;20.390;2023-08-06T00:32:30;5.72;;;4.85;;
55364;SDS011;41245;45.384;20.390;2023-08-06T00:34:56;6.85;;;4.72;;
55364;SDS011;41245;45.384;20.390;2023-08-06T00:37:22;7.82;;;5.53;;
55364;SDS011;41245;45.384;20.390;2023-08-06T00:39:48;10.13;;;5.43;;
55364;SDS011;41245;45.384;20.390;2023-08-06T00:42:14;7.40;;;4.28;;
55364;SDS011;41245;45.384;20.390;2023-08-06T00:44:42;6.03;;;4.65;;
55364;SDS011;41245;45.384;20.390;2023-08-06T00:47:08;5.60;;;4.50;;
55364;SDS011;41245;45.384;20.390;2023-08-06T00:49:37;7.28;;;4.93;;
55364;SDS011;41245;45.384;20.390;2023-08-06T00:52:04;8.98;;;5.10;;
55364;SDS011;41245;45.384;20.390;2023-08-06T00:54:31;8.90;;;5.28;;
55364;SDS011;41245;45.384;20.390;2023-08-06T00:56:57;9.82;;;5.70;;
55364;SDS011;41245;45.384;20.390;2023-08-06T00:59:24;6.18;;;4.95;;
55364;SDS011;41245;45.384;20.390;2023-08-06T01:01:51;7.30;;;5.28;;
55364;SDS011;41245;45.384;20.390;2023-08-06T01:04:17;6.55;;;5.15;;
55364;SDS011;41245;45.384;20.390;2023-08-06T01:09:45;8.95;;;5.45;;
55364;SDS011;41245;45.384;20.390;2023-08-06T01:12:40;6.32;;;4.97;;
55364;SDS011;41245;45.384;20.390;2023-08-06T01:15:19;8.63;;;5.70;;
55364;SDS011;41245;45.384;20.390;2023-08-06T01:17:46;6.40;;;4.80;;
55364;SDS011;41245;45.384;20.390;2023-08-06T01:20:13;6.70;;;5.28;;
55364;SDS011;41245;45.384;20.390;2023-08-06T01:22:39;6.57;;;5.20;;
55364;SDS011;41245;45.384;20.390;2023-08-06T01:25:05;8.90;;;5.50;;
55364;SDS011;41245;45.384;20.390;2023-08-06T01:30:14;9.57;;;5.75;;
55364;SDS011;41245;45.384;20.390;2023-08-06T01:32:45;5.90;;;5.30;;
55364;SDS011;41245;45.384;20.390;2023-08-06T01:35:12;8.55;;;6.53;;
55364;SDS011;41245;45.384;20.390;2023-08-06T01:37:39;9.70;;;6.05;;
55364;SDS011;41245;45.384;20.390;2023-08-06T01:40:12;12.52;;;7.07;;
55364;SDS011;41245;45.384;20.390;2023-08-06T01:42:38;9.07;;;7.20;;
55364;SDS011;41245;45.384;20.390;2023-08-06T01:45:05;10.90;;;7.05;;
55364;SDS011;41245;45.384;20.390;2023-08-06T01:47:32;12.18;;;8.82;;
55364;SDS011;41245;45.384;20.390;2023-08-06T01:49:58;15.18;;;8.50;;
55364;SDS011;41245;45.384;20.390;2023-08-06T01:52:24;12.68;;;7.30;;
55364;SDS011;41245;45.384;20.390;2023-08-06T01:54:50;15.77;;;7.88;;
55364;SDS011;41245;45.384;20.390;2023-08-06T01:57:16;11.65;;;8.18;;
55364;SDS011;41245;45.384;20.390;2023-08-06T01:59:42;12.32;;;8.32;;
55364;SDS011;41245;45.384;20.390;2023-08-06T02:02:08;10.80;;;7.82;;
55364;SDS011;41245;45.384;20.390;2023-08-06T02:04:34;14.38;;;8.80;;
55364;SDS011;41245;45.384;20.390;2023-08-06T02:07:00;13.93;;;8.88;;
55364;SDS011;41245;45.384;20.390;2023-08-06T02:09:26;13.02;;;9.73;;
55364;SDS011;41245;45.384;20.390;2023-08-06T02:11:52;16.42;;;11.20;;
55364;SDS011;41245;45.384;20.390;2023-08-06T02:14:18;11.15;;;9.38;;
55364;SDS011;41245;45.384;20.390;2023-08-06T02:16:44;13.95;;;10.48;;
55364;SDS011;41245;45.384;20.390;2023-08-06T02:19:10;15.10;;;11.65;;
55364;SDS011;41245;45.384;20.390;2023-08-06T02:21:36;14.85;;;11.30;;
55364;SDS011;41245;45.384;20.390;2023-08-06T02:24:02;17.17;;;12.55;;
55364;SDS011;41245;45.384;20.390;2023-08-06T02:26:28;21.35;;;13.48;;
55364;SDS011;41245;45.384;20.390;2023-08-06T02:28:54;21.55;;;13.40;;
55364;SDS011;41245;45.384;20.390;2023-08-06T02:31:21;22.08;;;14.25;;
55364;SDS011;41245;45.384;20.390;2023-08-06T02:33:47;19.55;;;13.63;;
55364;SDS011;41245;45.384;20.390;2023-08-06T02:36:13;23.13;;;15.60;;
55364;SDS011;41245;45.384;20.390;2023-08-06T02:38:39;20.60;;;14.85;;
55364;SDS011;41245;45.384;20.390;2023-08-06T02:41:05;22.60;;;15.50;;
55364;SDS011;41245;45.384;20.390;2023-08-06T02:43:31;23.80;;;15.88;;
55364;SDS011;41245;45.384;20.390;2023-08-06T02:45:57;24.67;;;15.52;;
55364;SDS011;41245;45.384;20.390;2023-08-06T02:48:24;29.92;;;17.35;;
55364;SDS011;41245;45.384;20.390;2023-08-06T02:50:50;28.25;;;17.83;;
55364;SDS011;41245;45.384;20.390;2023-08-06T02:53:16;27.02;;;16.58;;
55364;SDS011;41245;45.384;20.390;2023-08-06T02:55:46;27.83;;;17.17;;
55364;SDS011;41245;45.384;20.390;2023-08-06T02:58:15;27.30;;;16.63;;
55364;SDS011;41245;45.384;20.390;2023-08-06T03:00:42;27.40;;;17.60;;
55364;SDS011;41245;45.384;20.390;2023-08-06T03:03:08;31.02;;;18.88;;
55364;SDS011;41245;45.384;20.390;2023-08-06T03:05:34;30.27;;;18.77;;
55364;SDS011;41245;45.384;20.390;2023-08-06T03:08:00;31.60;;;19.83;;
55364;SDS011;41245;45.384;20.390;2023-08-06T03:10:27;39.22;;;20.95;;
55364;SDS011;41245;45.384;20.390;2023-08-06T03:12:53;36.25;;;20.10;;
55364;SDS011;41245;45.384;20.390;2023-08-06T03:15:19;31.00;;;19.67;;
55364;SDS011;41245;45.384;20.390;2023-08-06T03:17:45;34.38;;;20.08;;
55364;SDS011;41245;45.384;20.390;2023-08-06T03:20:11;31.20;;;19.88;;
55364;SDS011;41245;45.384;20.390;2023-08-06T03:22:37;33.05;;;19.40;;
55364;SDS011;41245;45.384;20.390;2023-08-06T03:25:03;33.40;;;19.10;;
55364;SDS011;41245;45.384;20.390;2023-08-06T03:27:29;32.50;;;20.35;;
55364;SDS011;41245;45.384;20.390;2023-08-06T03:29:55;32.97;;;20.77;;
55364;SDS011;41245;45.384;20.390;2023-08-06T03:32:21;28.00;;;19.27;;
55364;SDS011;41245;45.384;20.390;2023-08-06T03:34:47;35.63;;;20.35;;
55364;SDS011;41245;45.384;20.390;2023-08-06T03:37:13;28.77;;;19.60;;
55364;SDS011;41245;45.384;20.390;2023-08-06T03:39:40;29.15;;;19.02;;
55364;SDS011;41245;45.384;20.390;2023-08-06T03:42:06;31.83;;;20.08;;
55364;SDS011;41245;45.384;20.390;2023-08-06T03:44:32;33.92;;;21.65;;
55364;SDS011;41245;45.384;20.390;2023-08-06T03:46:58;33.47;;;20.80;;
55364;SDS011;41245;45.384;20.390;2023-08-06T03:49:24;34.55;;;20.55;;
55364;SDS011;41245;45.384;20.390;2023-08-06T03:51:50;39.55;;;23.63;;
55364;SDS011;41245;45.384;20.390;2023-08-06T03:54:16;42.10;;;23.10;;
55364;SDS011;41245;45.384;20.390;2023-08-06T03:56:42;45.20;;;23.52;;
55364;SDS011;41245;45.384;20.390;2023-08-06T03:59:08;35.08;;;21.67;;
55364;SDS011;41245;45.384;20.390;2023-08-06T04:01:34;44.20;;;24.40;;
55364;SDS011;41245;45.384;20.390;2023-08-06T04:04:00;44.22;;;23.75;;
55364;SDS011;41245;45.384;20.390;2023-08-06T04:06:26;46.17;;;24.15;;
55364;SDS011;41245;45.384;20.390;2023-08-06T04:08:52;50.63;;;24.52;;
55364;SDS011;41245;45.384;20.390;2023-08-06T04:11:18;45.70;;;23.77;;
55364;SDS011;41245;45.384;20.390;2023-08-06T04:13:44;46.63;;;24.15;;
55364;SDS011;41245;45.384;20.390;2023-08-06T04:16:10;46.15;;;24.80;;
55364;SDS011;41245;45.384;20.390;2023-08-06T04:18:37;44.30;;;24.75;;
55364;SDS011;41245;45.384;20.390;2023-08-06T04:21:03;48.10;;;24.92;;
55364;SDS011;41245;45.384;20.390;2023-08-06T04:23:29;45.85;;;25.60;;
55364;SDS011;41245;45.384;20.390;2023-08-06T04:25:58;54.47;;;26.65;;
55364;SDS011;41245;45.384;20.390;2023-08-06T04:28:24;50.38;;;24.88;;
55364;SDS011;41245;45.384;20.390;2023-08-06T04:30:50;61.33;;;27.17;;
55364;SDS011;41245;45.384;20.390;2023-08-06T04:33:18;57.65;;;27.33;;
55364;SDS011;41245;45.384;20.390;2023-08-06T04:35:44;56.42;;;27.45;;
55364;SDS011;41245;45.384;20.390;2023-08-06T04:38:10;54.33;;;27.48;;
55364;SDS011;41245;45.384;20.390;2023-08-06T04:40:36;52.65;;;27.35;;
55364;SDS011;41245;45.384;20.390;2023-08-06T04:43:02;54.88;;;27.98;;
55364;SDS011;41245;45.384;20.390;2023-08-06T04:45:28;62.92;;;28.02;;
55364;SDS011;41245;45.384;20.390;2023-08-06T04:47:55;67.60;;;30.45;;
55364;SDS011;41245;45.384;20.390;2023-08-06T04:50:21;55.13;;;27.92;;
55364;SDS011;41245;45.384;20.390;2023-08-06T04:52:47;68.15;;;31.27;;
55364;SDS011;41245;45.384;20.390;2023-08-06T04:55:13;64.45;;;30.02;;
55364;SDS011;41245;45.384;20.390;2023-08-06T04:57:39;68.45;;;30.08;;
55364;SDS011;41245;45.384;20.390;2023-08-06T05:00:08;72.97;;;32.38;;
55364;SDS011;41245;45.384;20.390;2023-08-06T05:02:34;64.38;;;29.90;;
55364;SDS011;41245;45.384;20.390;2023-08-06T05:05:03;61.50;;;29.65;;
55364;SDS011;41245;45.384;20.390;2023-08-06T05:07:29;61.40;;;28.35;;
55364;SDS011;41245;45.384;20.390;2023-08-06T05:09:55;53.88;;;28.60;;
55364;SDS011;41245;45.384;20.390;2023-08-06T05:12:21;61.15;;;28.48;;
55364;SDS011;41245;45.384;20.390;2023-08-06T05:14:47;64.47;;;29.48;;
55364;SDS011;41245;45.384;20.390;2023-08-06T05:17:13;64.38;;;29.70;;
55364;SDS011;41245;45.384;20.390;2023-08-06T05:19:39;71.50;;;30.70;;
55364;SDS011;41245;45.384;20.390;2023-08-06T05:22:05;63.67;;;30.50;;
55364;SDS011;41245;45.384;20.390;2023-08-06T05:24:31;78.43;;;32.05;;
55364;SDS011;41245;45.384;20.390;2023-08-06T05:26:57;76.63;;;34.45;;
55364;SDS011;41245;45.384;20.390;2023-08-06T05:29:23;72.00;;;33.00;;
55364;SDS011;41245;45.384;20.390;2023-08-06T05:31:49;64.18;;;30.42;;
55364;SDS011;41245;45.384;20.390;2023-08-06T05:34:15;63.78;;;31.75;;
55364;SDS011;41245;45.384;20.390;2023-08-06T05:36:41;60.85;;;30.58;;
55364;SDS011;41245;45.384;20.390;2023-08-06T05:39:07;57.53;;;28.23;;
55364;SDS011;41245;45.384;20.390;2023-08-06T05:41:33;49.58;;;28.48;;
55364;SDS011;41245;45.384;20.390;2023-08-06T05:43:59;55.35;;;28.92;;
55364;SDS011;41245;45.384;20.390;2023-08-06T05:46:25;52.42;;;28.70;;
55364;SDS011;41245;45.384;20.390;2023-08-06T05:48:52;32.58;;;20.77;;
55364;SDS011;41245;45.384;20.390;2023-08-06T05:51:18;40.00;;;24.42;;
55364;SDS011;41245;45.384;20.390;2023-08-06T05:53:44;38.00;;;24.17;;
55364;SDS011;41245;45.384;20.390;2023-08-06T05:56:12;31.60;;;21.98;;
55364;SDS011;41245;45.384;20.390;2023-08-06T05:58:38;29.33;;;21.45;;
55364;SDS011;41245;45.384;20.390;2023-08-06T06:01:04;27.98;;;20.05;;
55364;SDS011;41245;45.384;20.390;2023-08-06T06:03:30;27.90;;;21.58;;
55364;SDS011;41245;45.384;20.390;2023-08-06T06:05:56;27.42;;;21.40;;
55364;SDS011;41245;45.384;20.390;2023-08-06T06:08:22;29.65;;;20.77;;
55364;SDS011;41245;45.384;20.390;2023-08-06T06:10:48;26.30;;;18.33;;
55364;SDS011;41245;45.384;20.390;2023-08-06T06:13:14;24.33;;;19.15;;
55364;SDS011;41245;45.384;20.390;2023-08-06T06:15:40;29.42;;;21.08;;
55364;SDS011;41245;45.384;20.390;2023-08-06T06:18:06;26.52;;;18.40;;
55364;SDS011;41245;45.384;20.390;2023-08-06T06:20:32;27.20;;;19.95;;
55364;SDS011;41245;45.384;20.390;2023-08-06T06:22:58;22.98;;;18.30;;
55364;SDS011;41245;45.384;20.390;2023-08-06T06:25:25;21.35;;;16.45;;
55364;SDS011;41245;45.384;20.390;2023-08-06T06:27:51;17.80;;;15.63;;
55364;SDS011;41245;45.384;20.390;2023-08-06T06:30:17;19.15;;;15.75;;
55364;SDS011;41245;45.384;20.390;2023-08-06T06:32:43;20.65;;;16.40;;
55364;SDS011;41245;45.384;20.390;2023-08-06T06:35:09;18.77;;;15.55;;
55364;SDS011;41245;45.384;20.390;2023-08-06T06:37:35;17.67;;;14.98;;
55364;SDS011;41245;45.384;20.390;2023-08-06T06:40:01;18.08;;;14.65;;
55364;SDS011;41245;45.384;20.390;2023-08-06T06:42:28;22.20;;;15.90;;
55364;SDS011;41245;45.384;20.390;2023-08-06T06:44:54;19.73;;;15.45;;
55364;SDS011;41245;45.384;20.390;2023-08-06T06:47:20;22.15;;;16.60;;
55364;SDS011;41245;45.384;20.390;2023-08-06T06:49:46;20.08;;;16.55;;
55364;SDS011;41245;45.384;20.390;2023-08-06T06:52:13;21.20;;;16.70;;
55364;SDS011;41245;45.384;20.390;2023-08-06T06:54:39;17.88;;;15.88;;
55364;SDS011;41245;45.384;20.390;2023-08-06T06:57:05;19.20;;;17.20;;
55364;SDS011;41245;45.384;20.390;2023-08-06T06:59:31;18.17;;;16.27;;
55364;SDS011;41245;45.384;20.390;2023-08-06T07:01:57;21.15;;;16.67;;
55364;SDS011;41245;45.384;20.390;2023-08-06T07:04:23;17.42;;;15.18;;
55364;SDS011;41245;45.384;20.390;2023-08-06T07:06:49;18.73;;;15.85;;
55364;SDS011;41245;45.384;20.390;2023-08-06T07:09:17;18.50;;;16.55;;
55364;SDS011;41245;45.384;20.390;2023-08-06T07:11:43;15.80;;;14.30;;
55364;SDS011;41245;45.384;20.390;2023-08-06T07:14:09;22.15;;;15.65;;
55364;SDS011;41245;45.384;20.390;2023-08-06T07:16:35;14.82;;;13.43;;
55364;SDS011;41245;45.384;20.390;2023-08-06T07:19:01;17.15;;;12.10;;
55364;SDS011;41245;45.384;20.390;2023-08-06T07:21:27;14.52;;;13.02;;
55364;SDS011;41245;45.384;20.390;2023-08-06T07:23:53;13.52;;;11.73;;
55364;SDS011;41245;45.384;20.390;2023-08-06T07:26:19;12.43;;;11.23;;
55364;SDS011;41245;45.384;20.390;2023-08-06T07:28:45;14.93;;;12.23;;
55364;SDS011;41245;45.384;20.390;2023-08-06T07:31:11;12.68;;;11.30;;
55364;SDS011;41245;45.384;20.390;2023-08-06T07:33:37;10.68;;;9.65;;
55364;SDS011;41245;45.384;20.390;2023-08-06T07:36:07;10.82;;;9.82;;
55364;SDS011;41245;45.384;20.390;2023-08-06T07:41:01;14.55;;;10.43;;
55364;SDS011;41245;45.384;20.390;2023-08-06T07:43:27;9.07;;;8.13;;
55364;SDS011;41245;45.384;20.390;2023-08-06T07:45:53;10.30;;;9.10;;
55364;SDS011;41245;45.384;20.390;2023-08-06T07:48:19;11.30;;;10.20;;
55364;SDS011;41245;45.384;20.390;2023-08-06T07:50:45;8.50;;;7.70;;
55364;SDS011;41245;45.384;20.390;2023-08-06T07:53:15;7.93;;;7.22;;
55364;SDS011;41245;45.384;20.390;2023-08-06T07:55:41;7.85;;;7.15;;
55364;SDS011;41245;45.384;20.390;2023-08-06T07:58:07;9.35;;;8.45;;
55364;SDS011;41245;45.384;20.390;2023-08-06T08:00:33;11.07;;;8.32;;
55364;SDS011;41245;45.384;20.390;2023-08-06T08:02:59;9.15;;;7.03;;
55364;SDS011;41245;45.384;20.390;2023-08-06T08:05:25;7.90;;;7.13;;
55364;SDS011;41245;45.384;20.390;2023-08-06T08:07:51;9.70;;;6.97;;
55364;SDS011;41245;45.384;20.390;2023-08-06T08:10:17;11.07;;;7.00;;
55364;SDS011;41245;45.384;20.390;2023-08-06T08:12:43;6.45;;;5.85;;
55364;SDS011;41245;45.384;20.390;2023-08-06T08:15:12;5.72;;;5.13;;
55364;SDS011;41245;45.384;20.390;2023-08-06T08:17:38;7.25;;;5.45;;
55364;SDS011;41245;45.384;20.390;2023-08-06T08:20:04;6.72;;;5.20;;
55364;SDS011;41245;45.384;20.390;2023-08-06T08:22:31;6.15;;;4.95;;
55364;SDS011;41245;45.384;20.390;2023-08-06T08:24:57;5.97;;;4.90;;
55364;SDS011;41245;45.384;20.390;2023-08-06T08:27:23;5.10;;;4.60;;
55364;SDS011;41245;45.384;20.390;2023-08-06T08:29:49;4.65;;;4.22;;
55364;SDS011;41245;45.384;20.390;2023-08-06T08:32:15;4.47;;;2.92;;
55364;SDS011;41245;45.384;20.390;2023-08-06T08:34:41;8.65;;;2.90;;
55364;SDS011;41245;45.384;20.390;2023-08-06T08:37:07;2.22;;;2.00;;
55364;SDS011;41245;45.384;20.390;2023-08-06T08:39:33;2.30;;;2.10;;
55364;SDS011;41245;45.384;20.390;2023-08-06T08:41:59;5.30;;;2.45;;
55364;SDS011;41245;45.384;20.390;2023-08-06T08:44:26;2.22;;;2.05;;
55364;SDS011;41245;45.384;20.390;2023-08-06T08:46:54;3.67;;;1.75;;
55364;SDS011;41245;45.384;20.390;2023-08-06T08:49:21;2.85;;;2.35;;
55364;SDS011;41245;45.384;20.390;2023-08-06T08:51:48;6.90;;;2.05;;
55364;SDS011;41245;45.384;20.390;2023-08-06T08:54:15;2.40;;;2.10;;
55364;SDS011;41245;45.384;20.390;2023-08-06T08:56:42;2.42;;;1.90;;
55364;SDS011;41245;45.384;20.390;2023-08-06T08:59:09;2.05;;;1.90;;
55364;SDS011;41245;45.384;20.390;2023-08-06T09:01:35;2.72;;;1.75;;
55364;SDS011;41245;45.384;20.390;2023-08-06T09:04:03;2.40;;;1.67;;
55364;SDS011;41245;45.384;20.390;2023-08-06T09:06:30;4.57;;;1.58;;
55364;SDS011;41245;45.384;20.390;2023-08-06T09:09:06;3.42;;;1.45;;
55364;SDS011;41245;45.384;20.390;2023-08-06T09:11:33;1.30;;;1.20;;
55364;SDS011;41245;45.384;20.390;2023-08-06T09:14:06;1.08;;;1.08;;
55364;SDS011;41245;45.384;20.390;2023-08-06T09:16:34;1.38;;;1.10;;
55364;SDS011;41245;45.384;20.390;2023-08-06T09:19:07;1.00;;;1.00;;
55364;SDS011;41245;45.384;20.390;2023-08-06T09:21:35;2.40;;;0.80;;
55364;SDS011;41245;45.384;20.390;2023-08-06T09:24:06;0.93;;;0.90;;
55364;SDS011;41245;45.384;20.390;2023-08-06T09:26:33;2.85;;;0.93;;
55364;SDS011;41245;45.384;20.390;2023-08-06T09:28:59;0.90;;;0.90;;
55364;SDS011;41245;45.384;20.390;2023-08-06T09:31:32;1.48;;;1.00;;
55364;SDS011;41245;45.384;20.390;2023-08-06T09:34:02;3.60;;;1.08;;
55364;SDS011;41245;45.384;20.390;2023-08-06T09:36:28;1.73;;;1.00;;
55364;SDS011;41245;45.384;20.390;2023-08-06T09:38:54;5.15;;;3.80;;
55364;SDS011;41245;45.384;20.390;2023-08-06T09:41:26;2.47;;;0.90;;
55364;SDS011;41245;45.384;20.390;2023-08-06T09:43:53;1.48;;;0.80;;
55364;SDS011;41245;45.384;20.390;2023-08-06T09:46:19;4.43;;;0.73;;
55364;SDS011;41245;45.384;20.390;2023-08-06T09:48:47;0.90;;;0.60;;
55364;SDS011;41245;45.384;20.390;2023-08-06T09:51:14;1.05;;;0.73;;
55364;SDS011;41245;45.384;20.390;2023-08-06T09:53:40;0.75;;;0.60;;
55364;SDS011;41245;45.384;20.390;2023-08-06T09:56:06;2.10;;;0.43;;
55364;SDS011;41245;45.384;20.390;2023-08-06T09:58:34;1.73;;;0.75;;
55364;SDS011;41245;45.384;20.390;2023-08-06T10:01:01;1.05;;;0.70;;
55364;SDS011;41245;45.384;20.390;2023-08-06T10:03:28;0.60;;;0.60;;
55364;SDS011;41245;45.384;20.390;2023-08-06T10:05:57;1.00;;;0.90;;
55364;SDS011;41245;45.384;20.390;2023-08-06T10:08:23;0.55;;;0.52;;
55364;SDS011;41245;45.384;20.390;2023-08-06T10:10:49;2.17;;;1.30;;
55364;SDS011;41245;45.384;20.390;2023-08-06T10:13:16;0.70;;;0.70;;
55364;SDS011;41245;45.384;20.390;2023-08-06T10:15:43;0.40;;;0.40;;
55364;SDS011;41245;45.384;20.390;2023-08-06T10:18:09;0.50;;;0.50;;
55364;SDS011;41245;45.384;20.390;2023-08-06T10:20:36;2.17;;;0.47;;
55364;SDS011;41245;45.384;20.390;2023-08-06T10:23:03;0.68;;;0.68;;
55364;SDS011;41245;45.384;20.390;2023-08-06T10:25:31;2.38;;;0.43;;
55364;SDS011;41245;45.384;20.390;2023-08-06T10:27:58;0.40;;;0.40;;
55364;SDS011;41245;45.384;20.390;2023-08-06T10:32:51;2.53;;;0.52;;
55364;SDS011;41245;45.384;20.390;2023-08-06T10:35:27;4.70;;;0.32;;
55364;SDS011;41245;45.384;20.390;2023-08-06T10:37:57;5.68;;;0.90;;
55364;SDS011;41245;45.384;20.390;2023-08-06T10:40:24;0.85;;;0.57;;
55364;SDS011;41245;45.384;20.390;2023-08-06T10:42:51;1.85;;;0.55;;
55364;SDS011;41245;45.384;20.390;2023-08-06T10:45:18;2.67;;;0.63;;
55364;SDS011;41245;45.384;20.390;2023-08-06T10:47:45;3.92;;;0.55;;
55364;SDS011;41245;45.384;20.390;2023-08-06T10:50:11;4.60;;;0.60;;
55364;SDS011;41245;45.384;20.390;2023-08-06T10:52:38;0.40;;;0.40;;
55364;SDS011;41245;45.384;20.390;2023-08-06T10:55:05;1.23;;;0.40;;
55364;SDS011;41245;45.384;20.390;2023-08-06T10:57:31;0.60;;;0.47;;
55364;SDS011;41245;45.384;20.390;2023-08-06T10:59:57;4.30;;;0.45;;
55364;SDS011;41245;45.384;20.390;2023-08-06T11:02:23;0.63;;;0.40;;
55364;SDS011;41245;45.384;20.390;2023-08-06T11:04:49;0.30;;;0.30;;
55364;SDS011;41245;45.384;20.390;2023-08-06T11:07:15;0.60;;;0.60;;
55364;SDS011;41245;45.384;20.390;2023-08-06T11:09:41;3.15;;;1.40;;
55364;SDS011;41245;45.384;20.390;2023-08-06T11:12:11;3.67;;;1.05;;
55364;SDS011;41245;45.384;20.390;2023-08-06T11:14:37;1.33;;;0.40;;
55364;SDS011;41245;45.384;20.390;2023-08-06T11:17:06;0.40;;;0.40;;
55364;SDS011;41245;45.384;20.390;2023-08-06T11:19:32;1.05;;;0.50;;
55364;SDS011;41245;45.384;20.390;2023-08-06T11:21:59;2.25;;;1.15;;
55364;SDS011;41245;45.384;20.390;2023-08-06T11:24:27;3.72;;;2.22;;
55364;SDS011;41245;45.384;20.390;2023-08-06T11:26:53;1.02;;;0.60;;
55364;SDS011;41245;45.384;20.390;2023-08-06T11:29:19;0.57;;;0.52;;
55364;SDS011;41245;45.384;20.390;2023-08-06T11:31:46;2.35;;;0.60;;
55364;SDS011;41245;45.384;20.390;2023-08-06T11:34:14;1.55;;;0.60;;
55364;SDS011;41245;45.384;20.390;2023-08-06T11:36:41;0.30;;;0.30;;
55364;SDS011;41245;45.384;20.390;2023-08-06T11:39:08;1.02;;;0.40;;
55364;SDS011;41245;45.384;20.390;2023-08-06T11:41:35;0.30;;;0.30;;
55364;SDS011;41245;45.384;20.390;2023-08-06T11:44:03;0.30;;;0.30;;
55364;SDS011;41245;45.384;20.390;2023-08-06T11:46:29;0.57;;;0.57;;
55364;SDS011;41245;45.384;20.390;2023-08-06T11:48:55;0.50;;;0.45;;
55364;SDS011;41245;45.384;20.390;2023-08-06T11:51:22;1.08;;;0.70;;
55364;SDS011;41245;45.384;20.390;2023-08-06T11:53:49;0.60;;;0.60;;
55364;SDS011;41245;45.384;20.390;2023-08-06T11:56:15;0.40;;;0.40;;
55364;SDS011;41245;45.384;20.390;2023-08-06T11:58:42;1.83;;;0.45;;
55364;SDS011;41245;45.384;20.390;2023-08-06T12:01:08;1.70;;;0.38;;
55364;SDS011;41245;45.384;20.390;2023-08-06T12:03:40;0.60;;;0.60;;
55364;SDS011;41245;45.384;20.390;2023-08-06T12:06:06;3.67;;;0.32;;
55364;SDS011;41245;45.384;20.390;2023-08-06T12:08:33;0.85;;;0.35;;
55364;SDS011;41245;45.384;20.390;2023-08-06T12:10:59;3.03;;;0.82;;
55364;SDS011;41245;45.384;20.390;2023-08-06T12:13:25;1.25;;;0.50;;
55364;SDS011;41245;45.384;20.390;2023-08-06T12:15:51;2.05;;;0.57;;
55364;SDS011;41245;45.384;20.390;2023-08-06T12:18:18;0.50;;;0.50;;
55364;SDS011;41245;45.384;20.390;2023-08-06T12:20:45;3.45;;;0.60;;
55364;SDS011;41245;45.384;20.390;2023-08-06T12:23:11;1.15;;;0.70;;
55364;SDS011;41245;45.384;20.390;2023-08-06T12:25:40;2.88;;;0.70;;
55364;SDS011;41245;45.384;20.390;2023-08-06T12:28:06;2.90;;;0.90;;
55364;SDS011;41245;45.384;20.390;2023-08-06T12:30:34;0.50;;;0.50;;
55364;SDS011;41245;45.384;20.390;2023-08-06T12:33:00;4.18;;;0.77;;
55364;SDS011;41245;45.384;20.390;2023-08-06T12:35:26;0.40;;;0.38;;
55364;SDS011;41245;45.384;20.390;2023-08-06T12:37:52;0.85;;;0.40;;
55364;SDS011;41245;45.384;20.390;2023-08-06T12:40:20;0.88;;;0.30;;
55364;SDS011;41245;45.384;20.390;2023-08-06T12:42:46;0.43;;;0.40;;
55364;SDS011;41245;45.384;20.390;2023-08-06T12:45:13;0.70;;;0.57;;
55364;SDS011;41245;45.384;20.390;2023-08-06T12:47:40;0.40;;;0.40;;
55364;SDS011;41245;45.384;20.390;2023-08-06T12:50:06;0.40;;;0.40;;
55364;SDS011;41245;45.384;20.390;2023-08-06T12:52:32;4.07;;;0.30;;
55364;SDS011;41245;45.384;20.390;2023-08-06T12:54:58;1.65;;;0.40;;
55364;SDS011;41245;45.384;20.390;2023-08-06T12:57:24;0.90;;;0.30;;
55364;SDS011;41245;45.384;20.390;2023-08-06T12:59:51;1.02;;;0.40;;
55364;SDS011;41245;45.384;20.390;2023-08-06T13:02:17;0.30;;;0.30;;
55364;SDS011;41245;45.384;20.390;2023-08-06T13:04:45;3.13;;;0.60;;
55364;SDS011;41245;45.384;20.390;2023-08-06T13:07:11;0.35;;;0.35;;
55364;SDS011;41245;45.384;20.390;2023-08-06T13:09:37;3.20;;;0.52;;
55364;SDS011;41245;45.384;20.390;2023-08-06T13:12:04;0.60;;;0.60;;
55364;SDS011;41245;45.384;20.390;2023-08-06T13:14:30;0.52;;;0.40;;
55364;SDS011;41245;45.384;20.390;2023-08-06T13:16:57;0.40;;;0.40;;
55364;SDS011;41245;45.384;20.390;2023-08-06T13:19:23;3.13;;;0.57;;
55364;SDS011;41245;45.384;20.390;2023-08-06T13:24:15;1.10;;;0.50;;
55364;SDS011;41245;45.384;20.390;2023-08-06T13:26:41;4.45;;;0.90;;
55364;SDS011;41245;45.384;20.390;2023-08-06T13:29:07;1.30;;;0.70;;
55364;SDS011;41245;45.384;20.390;2023-08-06T13:31:33;2.78;;;0.50;;
55364;SDS011;41245;45.384;20.390;2023-08-06T13:33:59;0.70;;;0.60;;
55364;SDS011;41245;45.384;20.390;2023-08-06T13:36:29;1.10;;;0.47;;
55364;SDS011;41245;45.384;20.390;2023-08-06T13:38:56;3.55;;;0.57;;
55364;SDS011;41245;45.384;20.390;2023-08-06T13:41:22;0.40;;;0.40;;
55364;SDS011;41245;45.384;20.390;2023-08-06T13:43:48;0.40;;;0.40;;
55364;SDS011;41245;45.384;20.390;2023-08-06T13:46:15;2.78;;;0.47;;
55364;SDS011;41245;45.384;20.390;2023-08-06T13:48:43;1.63;;;0.38;;
55364;SDS011;41245;45.384;20.390;2023-08-06T13:51:09;0.55;;;0.45;;
55364;SDS011;41245;45.384;20.390;2023-08-06T13:53:36;0.80;;;0.68;;
55364;SDS011;41245;45.384;20.390;2023-08-06T13:56:02;0.40;;;0.40;;
55364;SDS011;41245;45.384;20.390;2023-08-06T13:58:28;0.50;;;0.50;;
55364;SDS011;41245;45.384;20.390;2023-08-06T14:00:54;0.85;;;0.47;;
55364;SDS011;41245;45.384;20.390;2023-08-06T14:03:21;2.50;;;0.50;;
55364;SDS011;41245;45.384;20.390;2023-08-06T14:05:47;0.82;;;0.60;;
55364;SDS011;41245;45.384;20.390;2023-08-06T14:08:15;2.45;;;0.60;;
55364;SDS011;41245;45.384;20.390;2023-08-06T14:10:44;0.45;;;0.45;;
55364;SDS011;41245;45.384;20.390;2023-08-06T14:13:10;0.73;;;0.60;;
55364;SDS011;41245;45.384;20.390;2023-08-06T14:15:37;3.20;;;0.55;;
55364;SDS011;41245;45.384;20.390;2023-08-06T14:18:06;2.53;;;0.40;;
55364;SDS011;41245;45.384;20.390;2023-08-06T14:20:35;0.57;;;0.40;;
55364;SDS011;41245;45.384;20.390;2023-08-06T14:23:01;0.60;;;0.60;;
55364;SDS011;41245;45.384;20.390;2023-08-06T14:25:27;0.70;;;0.30;;
55364;SDS011;41245;45.384;20.390;2023-08-06T14:27:53;0.40;;;0.40;;
55364;SDS011;41245;45.384;20.390;2023-08-06T14:30:19;0.30;;;0.30;;
55364;SDS011;41245;45.384;20.390;2023-08-06T14:32:45;1.02;;;0.40;;